sim
Sign-in with your pilot id or email,
or register
Callsign
Passwort

Schedule Details

Flight Number: DLH760
Departure: Frankfurt Airport (EDDF) at 12:20
Arrival: Delhi Indira Gandhi International Airport (VIDP) at 20:00
Route: Lufthansa Passenger Schedule. Enter filed route here before submitting Pirep.

Weather Information
Getting current METAR information for EDDF 271750Z 17008KT 9999 FEW025 10/06 Q1009 NOSIG
Getting current METAR information for VIDP 271800Z 00000KT 2200 FU NSC 20/14 Q1013 NOSIG

Schedule Frequency

Route Map